Time;durP1;ratioP1;P1;durP2;ratioP2;P2;SDS_P1;SDS_P2;PMS_P1;PMS_P2;Temp;Humidity;BMP_temperature;BMP_pressure;BME280_temperature;BME280_humidity;BME280_pressure;Samples;Min_cycle;Max_cycle;Signal;HPM_P1;HPM_P2
2022/03/07 00:00:30;;;;;;;11.83;8.60;;;;;-1.20;102110.00;;;;10292394;28;20212;-77
2022/03/07 00:05:33;;;;;;;16.60;9.63;;;;;-1.20;102104.00;;;;10275415;28;20723;-76
2022/03/07 00:10:35;;;;;;;13.17;9.90;;;;;-1.20;102109.00;;;;10308382;28;20224;-76
2022/03/07 00:15:38;;;;;;;13.77;8.70;;;;;-1.30;102114.00;;;;10308043;28;20242;-76
2022/03/07 00:20:39;;;;;;;14.33;8.67;;;;;-1.40;102122.00;;;;10291233;28;20658;-76
2022/03/07 00:25:41;;;;;;;14.10;8.77;;;;;-1.50;102116.00;;;;10291335;28;20206;-76
2022/03/07 00:30:43;;;;;;;10.13;8.70;;;;;-1.50;102119.00;;;;10291404;28;20429;-76
2022/03/07 00:35:46;;;;;;;10.53;8.23;;;;;-1.60;102126.00;;;;10305849;28;20283;-77
2022/03/07 00:40:48;;;;;;;14.70;9.37;;;;;-1.70;102127.00;;;;10306439;28;20220;-76
2022/03/07 00:45:50;;;;;;;15.07;9.33;;;;;-1.70;102129.00;;;;10276792;28;20200;-76
2022/03/07 00:50:53;;;;;;;14.87;10.10;;;;;-1.80;102125.00;;;;10308109;28;20223;-76
2022/03/07 00:55:55;;;;;;;13.60;9.60;;;;;-1.90;102126.00;;;;10267742;28;20344;-76
2022/03/07 01:01:03;;;;;;;14.73;9.67;;;;;-1.90;102128.00;;;;10301750;28;20200;-76
2022/03/07 01:06:06;;;;;;;17.17;10.17;;;;;-1.90;102120.00;;;;10308078;28;20199;-76
2022/03/07 01:11:10;;;;;;;13.13;9.23;;;;;-1.90;102134.00;;;;10302803;28;20216;-76
2022/03/07 01:16:12;;;;;;;14.33;9.50;;;;;-1.90;102132.00;;;;10301228;28;20202;-76
2022/03/07 01:21:14;;;;;;;13.93;10.33;;;;;-1.90;102140.00;;;;10298054;28;20200;-76
2022/03/07 01:26:16;;;;;;;18.67;10.40;;;;;-2.00;102128.00;;;;10299864;28;20218;-76
2022/03/07 01:31:18;;;;;;;13.80;10.20;;;;;-2.00;102126.00;;;;10283822;28;20243;-76
2022/03/07 01:36:20;;;;;;;15.33;11.00;;;;;-2.00;102125.00;;;;10317480;28;20204;-77
2022/03/07 01:41:22;;;;;;;14.93;10.73;;;;;-2.00;102109.00;;;;10300235;28;20756;-77
2022/03/07 01:46:24;;;;;;;16.80;10.20;;;;;-2.00;102109.00;;;;10299096;28;20234;-77
2022/03/07 01:51:26;;;;;;;13.53;9.87;;;;;-2.00;102102.00;;;;10301018;28;20224;-77
2022/03/07 01:56:28;;;;;;;13.27;9.77;;;;;-2.00;102107.00;;;;10315827;28;20901;-77
2022/03/07 02:01:31;;;;;;;15.33;10.97;;;;;-2.00;102101.00;;;;10299376;28;20757;-77
2022/03/07 02:06:35;;;;;;;17.70;11.17;;;;;-2.00;102099.00;;;;10282020;28;20212;-77
2022/03/07 02:11:38;;;;;;;14.87;11.33;;;;;-1.90;102100.00;;;;10298842;28;20212;-77
2022/03/07 02:16:44;;;;;;;17.73;11.47;;;;;-2.00;102085.00;;;;10289886;28;20239;-77
2022/03/07 02:21:49;;;;;;;16.00;10.97;;;;;-2.00;102093.00;;;;10315466;28;20196;-77
2022/03/07 02:27:06;;;;;;;15.87;10.83;;;;;-2.20;102085.00;;;;10300257;28;20215;-77
2022/03/07 02:32:09;;;;;;;16.97;11.37;;;;;-2.30;102078.00;;;;10297933;28;20287;-77
2022/03/07 02:37:20;;;;;;;16.67;11.10;;;;;-2.30;102091.00;;;;10314285;28;20227;-77
2022/03/07 02:42:26;;;;;;;16.80;11.57;;;;;-2.30;102077.00;;;;10339375;28;20239;-77
2022/03/07 02:47:28;;;;;;;17.80;11.87;;;;;-2.30;102080.00;;;;10330180;28;20220;-77
2022/03/07 02:52:31;;;;;;;16.70;10.93;;;;;-2.40;102085.00;;;;10297354;28;20544;-77
2022/03/07 02:57:33;;;;;;;17.60;11.13;;;;;-2.40;102079.00;;;;10281223;28;20208;-77
2022/03/07 03:02:35;;;;;;;16.90;10.70;;;;;-2.40;102074.00;;;;10297100;28;20198;-77
2022/03/07 03:07:36;;;;;;;20.80;11.30;;;;;-2.40;102071.00;;;;10297071;28;20224;-77
2022/03/07 03:12:39;;;;;;;16.13;11.60;;;;;-2.40;102081.00;;;;10296444;28;20211;-77
2022/03/07 03:17:42;;;;;;;19.80;11.93;;;;;-2.40;102083.00;;;;10312369;28;20227;-77
2022/03/07 03:22:45;;;;;;;18.77;12.07;;;;;-2.40;102083.00;;;;10310190;28;20211;-77
2022/03/07 03:27:47;;;;;;;15.07;11.57;;;;;-2.50;102092.00;;;;10310857;28;20230;-77
2022/03/07 03:32:49;;;;;;;15.80;11.23;;;;;-2.60;102088.00;;;;10295515;28;20196;-77
2022/03/07 03:37:51;;;;;;;14.50;11.07;;;;;-2.70;102086.00;;;;10279675;28;20699;-77
2022/03/07 03:42:53;;;;;;;16.87;11.23;;;;;-2.80;102100.00;;;;10295572;28;20195;-77
2022/03/07 03:47:55;;;;;;;15.73;10.13;;;;;-2.90;102094.00;;;;10278638;28;20223;-77
2022/03/07 03:52:57;;;;;;;17.70;10.10;;;;;-2.90;102101.00;;;;10279237;28;20258;-76
2022/03/07 03:57:59;;;;;;;14.67;10.47;;;;;-3.00;102088.00;;;;10294924;28;20270;-77
2022/03/07 04:03:01;;;;;;;15.03;10.87;;;;;-3.00;102095.00;;;;10295095;28;20875;-77
2022/03/07 04:08:04;;;;;;;17.33;12.17;;;;;-2.90;102099.00;;;;10292792;28;20669;-77
2022/03/07 04:13:05;;;;;;;17.30;11.67;;;;;-2.90;102094.00;;;;10312601;28;20760;-77
2022/03/07 04:18:07;;;;;;;21.70;13.13;;;;;-2.80;102096.00;;;;10317600;28;20265;-77
2022/03/07 04:23:09;;;;;;;19.70;11.87;;;;;-2.80;102086.00;;;;10350434;28;20201;-77
2022/03/07 04:28:11;;;;;;;19.67;13.30;;;;;-2.90;102091.00;;;;10333174;28;20254;-77
2022/03/07 04:33:13;;;;;;;20.07;13.00;;;;;-2.90;102097.00;;;;10330206;28;20196;-77
2022/03/07 04:38:15;;;;;;;16.33;11.70;;;;;-3.00;102098.00;;;;10305670;28;20286;-77
2022/03/07 04:43:17;;;;;;;17.53;13.17;;;;;-3.00;102099.00;;;;10277831;28;20204;-77
2022/03/07 04:48:20;;;;;;;19.73;13.10;;;;;-3.00;102099.00;;;;10305960;28;20231;-77
2022/03/07 04:53:22;;;;;;;19.43;13.10;;;;;-3.00;102097.00;;;;10324130;28;20243;-77
2022/03/07 04:58:24;;;;;;;21.33;13.00;;;;;-3.00;102094.00;;;;10325457;28;20266;-77
2022/03/07 05:03:26;;;;;;;16.47;12.83;;;;;-3.10;102103.00;;;;10309101;28;20200;-77
2022/03/07 05:08:28;;;;;;;18.73;12.73;;;;;-3.10;102095.00;;;;10325416;28;20248;-77
2022/03/07 05:13:30;;;;;;;20.50;13.63;;;;;-3.10;102095.00;;;;10277140;28;20663;-77
2022/03/07 05:18:32;;;;;;;20.77;13.33;;;;;-3.10;102098.00;;;;10260867;28;20211;-77
2022/03/07 05:23:34;;;;;;;21.80;13.13;;;;;-3.20;102102.00;;;;10309256;28;20222;-77
2022/03/07 05:28:37;;;;;;;21.43;12.87;;;;;-3.20;102097.00;;;;10293002;28;20224;-77
2022/03/07 05:33:41;;;;;;;20.03;13.17;;;;;-3.30;102104.00;;;;10276239;28;20286;-77
2022/03/07 05:38:42;;;;;;;20.50;14.07;;;;;-3.30;102097.00;;;;10276903;28;20223;-77
2022/03/07 05:43:44;;;;;;;21.13;14.40;;;;;-3.30;102096.00;;;;10312498;28;20196;-77
2022/03/07 05:48:48;;;;;;;24.60;14.50;;;;;-3.30;102097.00;;;;10315746;28;20208;-77
2022/03/07 05:53:51;;;;;;;22.03;14.33;;;;;-3.40;102102.00;;;;10284056;28;20196;-77
2022/03/07 05:58:53;;;;;;;24.70;15.37;;;;;-3.30;102103.00;;;;10300952;28;20254;-77
2022/03/07 06:03:55;;;;;;;21.87;15.43;;;;;-3.30;102103.00;;;;10315428;28;20287;-77
2022/03/07 06:08:57;;;;;;;22.57;15.63;;;;;-3.30;102095.00;;;;10315816;28;20220;-77
2022/03/07 06:13:59;;;;;;;23.83;15.50;;;;;-3.30;102106.00;;;;10299282;28;20243;-77
2022/03/07 06:19:01;;;;;;;26.03;16.03;;;;;-3.20;102111.00;;;;10286051;28;20204;-76
2022/03/07 06:24:03;;;;;;;28.30;16.13;;;;;-3.20;102101.00;;;;10297345;28;20200;-76
2022/03/07 06:29:06;;;;;;;28.33;17.50;;;;;-3.10;102107.00;;;;10314504;28;20290;-76
2022/03/07 06:34:07;;;;;;;29.97;18.57;;;;;-2.90;102118.00;;;;10289880;28;20203;-76
2022/03/07 06:39:09;;;;;;;21.47;15.03;;;;;-2.80;102114.00;;;;10284408;28;20374;-76
2022/03/07 06:44:11;;;;;;;25.10;17.70;;;;;-2.70;102120.00;;;;10298181;28;20211;-76
2022/03/07 06:49:14;;;;;;;24.40;16.70;;;;;-2.60;102131.00;;;;10260250;28;20247;-76
2022/03/07 06:54:15;;;;;;;25.83;16.87;;;;;-2.40;102133.00;;;;10271076;28;20228;-76
2022/03/07 06:59:17;;;;;;;29.00;16.93;;;;;-2.20;102122.00;;;;10256944;28;20201;-76
2022/03/07 07:04:19;;;;;;;22.37;15.70;;;;;-2.00;102134.00;;;;10279965;28;20698;-76
2022/03/07 07:09:21;;;;;;;23.43;17.03;;;;;-1.60;102137.00;;;;10280106;28;20691;-76
2022/03/07 07:14:23;;;;;;;25.23;17.47;;;;;-1.30;102142.00;;;;10280104;28;20222;-76
2022/03/07 07:19:25;;;;;;;20.73;16.27;;;;;-1.00;102136.00;;;;10295430;28;20211;-76
2022/03/07 07:24:27;;;;;;;24.57;15.87;;;;;-0.60;102137.00;;;;10293595;28;20204;-76
2022/03/07 07:29:29;;;;;;;24.03;15.73;;;;;-0.20;102141.00;;;;10279286;28;20216;-76
2022/03/07 07:34:32;;;;;;;21.63;15.50;;;;;0.30;102138.00;;;;10306786;28;20207;-77
2022/03/07 07:39:34;;;;;;;19.17;13.43;;;;;0.50;102153.00;;;;10285788;28;20224;-77
2022/03/07 07:44:36;;;;;;;21.03;13.47;;;;;0.90;102157.00;;;;10286604;28;20209;-77
2022/03/07 07:49:38;;;;;;;20.00;14.53;;;;;1.00;102173.00;;;;10289580;28;20691;-77
2022/03/07 07:54:40;;;;;;;22.20;15.37;;;;;1.20;102179.00;;;;10293805;28;20207;-77
2022/03/07 07:59:42;;;;;;;21.73;13.97;;;;;1.30;102175.00;;;;10292613;28;20278;-77
2022/03/07 08:05:15;;;;;;;18.47;13.73;;;;;1.50;102172.00;;;;10297170;28;20562;-76
2022/03/07 08:10:17;;;;;;;20.87;14.20;;;;;1.80;102174.00;;;;10308683;28;20244;-77
2022/03/07 08:15:20;;;;;;;17.47;14.13;;;;;2.00;102177.00;;;;10309650;28;20201;-77
2022/03/07 08:20:27;;;;;;;17.23;12.63;;;;;2.30;102182.00;;;;10276535;28;20204;-78
2022/03/07 08:25:29;;;;;;;15.03;11.43;;;;;2.60;102180.00;;;;10257500;28;20200;-78
2022/03/07 08:30:33;;;;;;;16.47;11.37;;;;;2.90;102179.00;;;;10279124;28;20311;-79
2022/03/07 08:35:35;;;;;;;14.80;10.67;;;;;3.30;102182.00;;;;10313657;28;20208;-78
2022/03/07 08:40:37;;;;;;;10.43;9.40;;;;;3.60;102187.00;;;;10301993;28;20223;-78
2022/03/07 08:45:39;;;;;;;11.67;9.20;;;;;4.00;102185.00;;;;10296369;28;20777;-76
2022/03/07 08:50:57;;;;;;;14.60;8.63;;;;;4.20;102180.00;;;;10305281;28;20223;-76
2022/03/07 08:55:59;;;;;;;10.77;8.50;;;;;4.30;102183.00;;;;10283125;28;20279;-75
2022/03/07 09:01:21;;;;;;;8.83;7.43;;;;;4.50;102169.00;;;;10289023;28;20575;-76
2022/03/07 09:06:24;;;;;;;12.37;7.30;;;;;4.70;102169.00;;;;10297514;28;20239;-76
2022/03/07 09:11:25;;;;;;;9.27;7.23;;;;;4.90;102152.00;;;;10265931;28;20224;-76
2022/03/07 09:16:28;;;;;;;8.50;6.67;;;;;5.10;102151.00;;;;10304498;28;20192;-76
2022/03/07 09:21:30;;;;;;;10.20;6.60;;;;;5.30;102162.00;;;;10270830;28;20295;-76
2022/03/07 09:26:34;;;;;;;7.40;5.83;;;;;5.50;102155.00;;;;10267583;28;20200;-76
2022/03/07 09:31:36;;;;;;;7.23;4.90;;;;;5.70;102146.00;;;;10296645;28;20586;-76
2022/03/07 09:36:38;;;;;;;5.53;4.90;;;;;5.80;102139.00;;;;10292148;28;20890;-76
2022/03/07 09:41:43;;;;;;;5.33;4.37;;;;;6.10;102133.00;;;;10295170;28;20254;-76
2022/03/07 09:46:48;;;;;;;6.13;4.70;;;;;6.10;102126.00;;;;10311587;28;20204;-77
2022/03/07 09:51:51;;;;;;;5.47;4.47;;;;;6.50;102118.00;;;;10311482;28;20574;-76
2022/03/07 09:56:54;;;;;;;7.17;4.73;;;;;6.50;102128.00;;;;10311317;28;20258;-76
2022/03/07 10:02:05;;;;;;;6.13;5.47;;;;;6.70;102104.00;;;;10295018;28;20552;-77
2022/03/07 10:07:07;;;;;;;7.80;5.03;;;;;6.70;102108.00;;;;10261278;28;20209;-76
2022/03/07 10:12:09;;;;;;;7.90;5.70;;;;;6.90;102107.00;;;;10278321;28;20232;-77
2022/03/07 10:17:22;;;;;;;5.90;5.30;;;;;7.10;102103.00;;;;10278151;28;20315;-76
2022/03/07 10:22:26;;;;;;;8.67;5.33;;;;;7.50;102095.00;;;;10277079;28;20208;-76
2022/03/07 10:27:31;;;;;;;5.83;5.23;;;;;7.80;102095.00;;;;10256602;28;20209;-76
2022/03/07 10:32:32;;;;;;;7.13;5.40;;;;;7.70;102081.00;;;;10267940;28;20247;-76
2022/03/07 10:37:36;;;;;;;5.90;4.40;;;;;7.80;102079.00;;;;10294784;28;20270;-75
2022/03/07 10:42:45;;;;;;;5.30;4.80;;;;;8.20;102076.00;;;;10309058;28;20383;-76
2022/03/07 10:47:52;;;;;;;5.47;4.73;;;;;8.50;102074.00;;;;10316829;28;20215;-76
2022/03/07 10:53:00;;;;;;;9.23;5.00;;;;;8.60;102072.00;;;;10291860;28;20576;-76
2022/03/07 10:58:11;;;;;;;5.23;3.97;;;;;8.80;102061.00;;;;10262983;28;20306;-76
2022/03/07 11:03:19;;;;;;;8.70;5.10;;;;;8.80;102060.00;;;;10308026;28;20302;-76
2022/03/07 11:08:22;;;;;;;4.73;4.33;;;;;8.90;102051.00;;;;10292596;28;20215;-76
2022/03/07 11:13:29;;;;;;;5.90;4.50;;;;;9.10;102045.00;;;;10271544;28;20205;-76
2022/03/07 11:18:32;;;;;;;5.90;4.33;;;;;9.00;102050.00;;;;10291344;28;20403;-76
2022/03/07 11:23:34;;;;;;;5.60;5.00;;;;;9.10;102041.00;;;;10280001;28;20208;-76
2022/03/07 11:28:36;;;;;;;6.57;4.13;;;;;9.20;102042.00;;;;10259709;28;20256;-76
2022/03/07 11:33:49;;;;;;;5.97;4.73;;;;;9.10;102022.00;;;;10291825;28;20678;-76
2022/03/07 11:38:59;;;;;;;7.47;5.07;;;;;9.30;102021.00;;;;10259804;28;20254;-76
2022/03/07 11:44:09;;;;;;;4.40;4.00;;;;;9.10;102017.00;;;;10289505;28;20208;-75
2022/03/07 11:49:26;;;;;;;4.70;4.30;;;;;9.00;101996.00;;;;10273472;28;20224;-76
2022/03/07 11:54:28;;;;;;;6.30;4.30;;;;;9.20;101995.00;;;;10304728;28;20658;-76
2022/03/07 11:59:31;;;;;;;6.40;4.57;;;;;9.30;101990.00;;;;10290643;28;20208;-74
2022/03/07 12:04:41;;;;;;;7.43;4.73;;;;;9.50;101982.00;;;;10303941;28;20218;-75
2022/03/07 12:09:43;;;;;;;5.00;4.33;;;;;9.50;101974.00;;;;10271925;28;20251;-74
2022/03/07 12:14:47;;;;;;;5.03;4.23;;;;;9.60;101971.00;;;;10273586;28;20215;-76
2022/03/07 12:19:54;;;;;;;7.63;4.47;;;;;9.60;101963.00;;;;10272957;28;20242;-74
2022/03/07 12:25:00;;;;;;;5.77;4.57;;;;;9.70;101943.00;;;;10306187;28;20207;-76
2022/03/07 12:30:04;;;;;;;9.83;4.63;;;;;9.80;101942.00;;;;10290426;28;20283;-74
2022/03/07 12:35:06;;;;;;;6.63;5.07;;;;;10.00;101936.00;;;;10289981;28;20575;-76
2022/03/07 12:40:10;;;;;;;5.87;5.27;;;;;10.00;101926.00;;;;10258019;28;20509;-76
2022/03/07 12:45:17;;;;;;;5.63;5.00;;;;;9.90;101931.00;;;;10289394;28;20196;-76
2022/03/07 12:50:25;;;;;;;6.00;4.40;;;;;10.00;101906.00;;;;10270070;28;20226;-74
2022/03/07 12:55:27;;;;;;;5.47;4.97;;;;;10.10;101890.00;;;;10269537;28;20748;-76
2022/03/07 13:00:32;;;;;;;5.60;4.90;;;;;10.20;101892.00;;;;10285652;28;20226;-76
2022/03/07 13:05:34;;;;;;;5.50;5.00;;;;;10.30;101888.00;;;;10316318;28;20709;-76
2022/03/07 13:10:36;;;;;;;5.40;4.87;;;;;10.30;101881.00;;;;10301336;28;20219;-74
2022/03/07 13:15:42;;;;;;;11.73;5.37;;;;;10.30;101874.00;;;;10294938;28;20241;-74
2022/03/07 13:20:44;;;;;;;8.20;5.17;;;;;10.30;101863.00;;;;10317382;28;20258;-76
2022/03/07 13:25:51;;;;;;;7.53;5.50;;;;;10.40;101863.00;;;;10318879;28;20212;-76
2022/03/07 13:30:54;;;;;;;6.93;5.70;;;;;10.50;101858.00;;;;10317005;28;20232;-75
2022/03/07 13:35:56;;;;;;;6.23;5.20;;;;;10.40;101844.00;;;;10297801;28;20583;-74
2022/03/07 13:41:07;;;;;;;6.23;5.30;;;;;10.40;101842.00;;;;10317413;28;20278;-74
2022/03/07 13:46:17;;;;;;;9.80;5.30;;;;;11.30;101831.00;;;;10276907;28;20316;-75
2022/03/07 13:51:29;;;;;;;5.40;4.87;;;;;12.30;101831.00;;;;10301235;28;20234;-75
2022/03/07 13:56:31;;;;;;;6.10;5.50;;;;;12.00;101827.00;;;;10290779;28;20212;-75
2022/03/07 14:01:33;;;;;;;8.73;5.50;;;;;13.50;101777.00;;;;10302321;28;20203;-75
2022/03/07 14:06:37;;;;;;;6.53;5.30;;;;;15.40;101749.00;;;;10321341;28;20288;-75
2022/03/07 14:11:40;;;;;;;5.33;4.77;;;;;15.90;101744.00;;;;10278713;28;20236;-75
2022/03/07 14:16:42;;;;;;;5.63;5.00;;;;;15.20;101746.00;;;;10299440;28;20273;-75
2022/03/07 14:21:44;;;;;;;5.37;4.87;;;;;13.40;101757.00;;;;10294056;28;20210;-75
2022/03/07 14:26:49;;;;;;;6.67;5.10;;;;;13.10;101733.00;;;;10282818;28;20274;-75
2022/03/07 14:31:51;;;;;;;6.20;5.57;;;;;14.40;101711.00;;;;10293927;28;20891;-76
2022/03/07 14:36:53;;;;;;;6.53;5.57;;;;;14.40;101721.00;;;;10326166;28;20235;-75
2022/03/07 14:41:56;;;;;;;5.77;4.67;;;;;14.30;101708.00;;;;10310044;28;20238;-76
2022/03/07 14:47:07;;;;;;;6.37;5.77;;;;;15.10;101688.00;;;;10278091;28;20209;-75
2022/03/07 14:52:12;;;;;;;6.53;5.07;;;;;15.00;101713.00;;;;10294813;28;20279;-76
2022/03/07 14:57:14;;;;;;;6.77;5.10;;;;;13.20;101719.00;;;;10293505;28;20208;-76
2022/03/07 15:02:16;;;;;;;7.00;4.90;;;;;15.80;101636.00;;;;10277453;28;20215;-76
2022/03/07 15:07:19;;;;;;;5.80;5.20;;;;;13.70;101683.00;;;;10297198;28;20208;-76
2022/03/07 15:12:20;;;;;;;7.33;5.63;;;;;13.40;101689.00;;;;10283159;28;20251;-76
2022/03/07 15:17:23;;;;;;;7.00;5.00;;;;;11.30;101697.00;;;;10292863;28;20204;-76
2022/03/07 15:22:25;;;;;;;9.03;5.27;;;;;13.60;101673.00;;;;10275651;28;20212;-76
2022/03/07 15:27:28;;;;;;;7.40;5.30;;;;;14.70;101653.00;;;;10307981;28;20226;-76
2022/03/07 15:32:31;;;;;;;8.57;5.70;;;;;15.20;101669.00;;;;10275118;28;20256;-76
2022/03/07 15:37:33;;;;;;;5.50;4.80;;;;;13.40;101730.00;;;;10315647;28;20239;-76
2022/03/07 15:42:35;;;;;;;5.57;4.97;;;;;10.20;101713.00;;;;10275789;28;20212;-76
2022/03/07 15:47:37;;;;;;;9.47;5.93;;;;;9.60;101711.00;;;;10288110;28;20211;-76
2022/03/07 15:52:39;;;;;;;6.97;4.83;;;;;8.70;101717.00;;;;10290802;28;20255;-75
2022/03/07 15:57:43;;;;;;;5.80;5.00;;;;;8.40;101726.00;;;;10307164;28;20239;-75
2022/03/07 16:02:45;;;;;;;6.77;4.83;;;;;7.70;101721.00;;;;10275362;28;20236;-75
2022/03/07 16:07:47;;;;;;;5.93;4.70;;;;;7.60;101708.00;;;;10315841;28;20208;-75
2022/03/07 16:12:49;;;;;;;6.63;4.97;;;;;7.20;101714.00;;;;10289536;28;20219;-75
2022/03/07 16:17:51;;;;;;;5.63;4.93;;;;;6.80;101719.00;;;;10289942;28;20808;-75
2022/03/07 16:22:53;;;;;;;5.33;4.83;;;;;6.60;101709.00;;;;10289541;28;20211;-75
2022/03/07 16:27:55;;;;;;;5.87;4.73;;;;;6.50;101693.00;;;;10289720;28;20283;-75
2022/03/07 16:32:57;;;;;;;4.90;4.40;;;;;6.40;101704.00;;;;10321275;28;20315;-75
2022/03/07 16:38:00;;;;;;;5.20;4.60;;;;;6.30;101700.00;;;;10288659;28;20266;-75
2022/03/07 16:43:02;;;;;;;6.17;4.50;;;;;6.10;101699.00;;;;10304985;28;20247;-75
2022/03/07 16:48:05;;;;;;;4.90;4.50;;;;;6.10;101703.00;;;;10289456;28;20200;-76
2022/03/07 16:53:07;;;;;;;5.33;4.60;;;;;5.90;101691.00;;;;10306065;28;20298;-75
2022/03/07 16:58:09;;;;;;;8.47;5.03;;;;;5.80;101689.00;;;;10289829;28;20208;-75
2022/03/07 17:03:11;;;;;;;5.37;4.73;;;;;5.80;101685.00;;;;10288649;28;20636;-75
2022/03/07 17:08:14;;;;;;;5.30;4.80;;;;;5.70;101682.00;;;;10311807;28;20207;-75
2022/03/07 17:13:16;;;;;;;6.93;4.87;;;;;5.50;101691.00;;;;10337461;28;20522;-75
2022/03/07 17:18:17;;;;;;;5.93;4.50;;;;;5.40;101682.00;;;;10320659;28;20230;-75
2022/03/07 17:23:19;;;;;;;6.97;4.97;;;;;5.30;101688.00;;;;10288206;28;20283;-75
2022/03/07 17:28:22;;;;;;;7.57;4.40;;;;;5.10;101675.00;;;;10304632;28;20196;-75
2022/03/07 17:33:24;;;;;;;4.80;4.30;;;;;5.10;101676.00;;;;10289282;28;20231;-75
2022/03/07 17:38:26;;;;;;;10.30;5.07;;;;;4.90;101677.00;;;;10304164;28;20234;-75
2022/03/07 17:43:28;;;;;;;7.07;5.30;;;;;4.80;101679.00;;;;10307744;28;20303;-76
2022/03/07 17:48:30;;;;;;;8.63;4.90;;;;;4.60;101675.00;;;;10296679;28;20223;-76
2022/03/07 17:53:32;;;;;;;7.17;4.67;;;;;4.50;101679.00;;;;10295875;28;20703;-75
2022/03/07 17:58:34;;;;;;;7.00;5.00;;;;;4.40;101676.00;;;;10279581;28;20363;-76
2022/03/07 18:03:37;;;;;;;6.37;4.87;;;;;4.30;101677.00;;;;10328332;28;20258;-76
2022/03/07 18:08:39;;;;;;;6.03;5.43;;;;;4.20;101682.00;;;;10294977;28;20192;-76
2022/03/07 18:13:41;;;;;;;7.93;5.53;;;;;4.10;101676.00;;;;10295113;28;20270;-76
2022/03/07 18:18:44;;;;;;;9.30;5.10;;;;;3.90;101688.00;;;;10310219;28;20287;-76
2022/03/07 18:23:46;;;;;;;11.37;5.20;;;;;3.90;101700.00;;;;10293876;28;20211;-76
2022/03/07 18:28:50;;;;;;;7.27;5.13;;;;;3.70;101700.00;;;;10310309;28;20945;-76
2022/03/07 18:33:52;;;;;;;6.83;5.57;;;;;3.60;101700.00;;;;10314663;28;20235;-76
2022/03/07 18:38:54;;;;;;;14.37;5.63;;;;;3.50;101706.00;;;;10334348;28;20223;-76
2022/03/07 18:43:56;;;;;;;12.37;6.00;;;;;3.40;101698.00;;;;10329477;28;20228;-76
2022/03/07 18:48:58;;;;;;;11.07;6.57;;;;;3.40;101687.00;;;;10310031;28;20291;-76
2022/03/07 18:54:00;;;;;;;10.93;6.63;;;;;3.30;101688.00;;;;10291567;28;20266;-76
2022/03/07 18:59:03;;;;;;;10.20;6.53;;;;;3.30;101703.00;;;;10295117;28;20291;-76
2022/03/07 19:04:05;;;;;;;6.73;5.47;;;;;3.20;101711.00;;;;10306735;28;20223;-77
2022/03/07 19:09:08;;;;;;;8.20;5.60;;;;;3.30;101710.00;;;;10278732;28;20199;-77
2022/03/07 19:14:11;;;;;;;11.63;5.97;;;;;3.20;101710.00;;;;10307186;28;20228;-77
2022/03/07 19:19:14;;;;;;;8.17;5.43;;;;;3.10;101711.00;;;;10313567;28;20192;-78
2022/03/07 19:24:16;;;;;;;8.43;5.20;;;;;3.00;101700.00;;;;10299202;28;20204;-77
2022/03/07 19:29:18;;;;;;;8.33;5.97;;;;;2.90;101709.00;;;;10282516;28;20200;-77
2022/03/07 19:34:21;;;;;;;7.93;5.47;;;;;3.00;101703.00;;;;10311334;28;20252;-77
2022/03/07 19:39:24;;;;;;;6.87;5.87;;;;;3.10;101712.00;;;;10305605;28;20223;-77
2022/03/07 19:44:26;;;;;;;9.83;6.10;;;;;3.30;101707.00;;;;10268760;28;20208;-77
2022/03/07 19:49:28;;;;;;;9.17;5.43;;;;;3.40;101709.00;;;;10260713;28;20208;-76
2022/03/07 19:54:30;;;;;;;7.17;5.20;;;;;3.50;101714.00;;;;10307136;28;20682;-77
2022/03/07 19:59:32;;;;;;;6.50;5.57;;;;;3.60;101714.00;;;;10301330;28;20451;-76
2022/03/07 20:04:36;;;;;;;6.33;5.30;;;;;3.70;101712.00;;;;10302365;28;20243;-77
2022/03/07 20:09:40;;;;;;;6.47;5.13;;;;;3.70;101715.00;;;;10259452;28;20211;-76
2022/03/07 20:14:42;;;;;;;7.47;4.60;;;;;3.70;101719.00;;;;10305300;28;20196;-76
2022/03/07 20:19:45;;;;;;;12.40;5.97;;;;;3.50;101721.00;;;;10274743;28;20978;-77
2022/03/07 20:24:47;;;;;;;6.30;5.67;;;;;3.40;101725.00;;;;10257388;28;20220;-77
2022/03/07 20:29:49;;;;;;;9.53;7.27;;;;;3.30;101720.00;;;;10295149;28;20235;-77
2022/03/07 20:34:51;;;;;;;7.30;5.53;;;;;3.30;101729.00;;;;10310270;28;20200;-77
2022/03/07 20:39:54;;;;;;;8.93;6.57;;;;;3.30;101727.00;;;;10281984;28;20575;-77
2022/03/07 20:44:56;;;;;;;13.73;6.37;;;;;3.20;101731.00;;;;10308942;28;20212;-76
2022/03/07 20:49:58;;;;;;;8.70;6.37;;;;;3.10;101731.00;;;;10287336;28;20864;-76
2022/03/07 20:55:01;;;;;;;11.67;6.43;;;;;3.00;101727.00;;;;10289903;28;20209;-77
2022/03/07 21:00:06;;;;;;;7.93;6.33;;;;;3.00;101731.00;;;;10291832;28;20204;-77
2022/03/07 21:05:09;;;;;;;8.37;6.97;;;;;3.10;101726.00;;;;10272269;28;20207;-77
2022/03/07 21:10:11;;;;;;;10.97;6.43;;;;;3.00;101721.00;;;;10281282;28;20247;-76
2022/03/07 21:15:13;;;;;;;10.03;7.20;;;;;3.00;101717.00;;;;10284451;28;20232;-77
2022/03/07 21:20:15;;;;;;;8.27;6.33;;;;;2.90;101715.00;;;;10292541;28;20214;-77
2022/03/07 21:25:18;;;;;;;9.23;6.50;;;;;2.80;101708.00;;;;10311847;28;20656;-77
2022/03/07 21:30:20;;;;;;;10.43;7.37;;;;;2.70;101701.00;;;;10303432;28;20208;-77
2022/03/07 21:35:26;;;;;;;11.97;7.83;;;;;2.70;101695.00;;;;10298482;28;20189;-77
2022/03/07 21:40:28;;;;;;;10.73;7.33;;;;;2.50;101682.00;;;;10284749;28;20235;-77
2022/03/07 21:45:30;;;;;;;10.27;7.10;;;;;2.30;101678.00;;;;10290271;28;20199;-77
2022/03/07 21:50:33;;;;;;;11.83;8.20;;;;;2.10;101682.00;;;;10295524;28;20274;-77
2022/03/07 21:55:36;;;;;;;11.17;8.13;;;;;2.00;101690.00;;;;10302048;28;20223;-77
2022/03/07 22:00:38;;;;;;;11.63;7.77;;;;;1.90;101694.00;;;;10290502;28;20207;-77
2022/03/07 22:05:41;;;;;;;8.83;7.37;;;;;1.70;101691.00;;;;10302344;28;20227;-77
2022/03/07 22:10:43;;;;;;;10.50;8.60;;;;;1.60;101693.00;;;;10302355;28;20318;-76
2022/03/07 22:15:45;;;;;;;10.37;7.50;;;;;1.50;101683.00;;;;10252364;28;20762;-76
2022/03/07 22:20:47;;;;;;;10.90;7.93;;;;;1.40;101685.00;;;;10300841;28;20215;-76
2022/03/07 22:25:49;;;;;;;11.20;8.10;;;;;1.30;101682.00;;;;10295519;28;20192;-76
2022/03/07 22:30:51;;;;;;;9.40;6.87;;;;;1.20;101688.00;;;;10310701;28;20212;-76
2022/03/07 22:35:53;;;;;;;12.30;7.67;;;;;1.10;101678.00;;;;10279199;28;20196;-76
2022/03/07 22:40:56;;;;;;;10.73;8.17;;;;;1.10;101673.00;;;;10310329;28;20255;-76
2022/03/07 22:45:58;;;;;;;9.63;8.03;;;;;1.10;101674.00;;;;10293888;28;20606;-77
2022/03/07 22:51:01;;;;;;;11.17;8.60;;;;;1.10;101668.00;;;;10294512;28;20434;-76
2022/03/07 22:56:05;;;;;;;11.67;8.70;;;;;1.00;101663.00;;;;10278733;28;20677;-76
2022/03/07 23:01:07;;;;;;;11.50;8.43;;;;;0.80;101663.00;;;;10280006;28;20249;-76
2022/03/07 23:11:29;;;;;;;12.33;8.17;;;;;0.60;101650.00;;;;10315675;28;20315;-76
2022/03/07 23:16:32;;;;;;;12.63;8.63;;;;;0.60;101644.00;;;;10293464;28;20204;-76
2022/03/07 23:21:35;;;;;;;13.93;8.70;;;;;0.60;101651.00;;;;10275830;28;20208;-76
2022/03/07 23:26:37;;;;;;;13.27;9.13;;;;;0.60;101657.00;;;;10277865;28;20255;-76
2022/03/07 23:31:40;;;;;;;13.00;9.07;;;;;0.50;101654.00;;;;10291561;28;20223;-76
2022/03/07 23:36:42;;;;;;;14.93;8.87;;;;;0.50;101653.00;;;;10307247;28;20283;-76
2022/03/07 23:41:44;;;;;;;12.43;8.40;;;;;0.60;101657.00;;;;10259583;28;20215;-76
2022/03/07 23:46:46;;;;;;;12.00;8.80;;;;;0.50;101649.00;;;;10286770;28;20196;-76
2022/03/07 23:51:49;;;;;;;13.20;9.27;;;;;0.30;101653.00;;;;10291592;28;20220;-76
2022/03/07 23:56:52;;;;;;;15.20;9.60;;;;;0.10;101649.00;;;;10275812;28;20200;-76
